sensor_id;sensor_type;location;lat;lon;timestamp;P1;durP1;ratioP1;P2;durP2;ratioP2
13012;SDS011;22580;57.670;12.006;2023-08-17T00:00:33;0.05;;;0.00;;
13012;SDS011;22580;57.670;12.006;2023-08-17T00:03:00;0.10;;;0.10;;
13012;SDS011;22580;57.670;12.006;2023-08-17T00:05:27;0.20;;;0.20;;
13012;SDS011;22580;57.670;12.006;2023-08-17T00:07:55;0.15;;;0.15;;
13012;SDS011;22580;57.670;12.006;2023-08-17T00:10:21;0.20;;;0.20;;
13012;SDS011;22580;57.670;12.006;2023-08-17T00:12:50;0.00;;;0.00;;
13012;SDS011;22580;57.670;12.006;2023-08-17T00:15:17;0.10;;;0.10;;
13012;SDS011;22580;57.670;12.006;2023-08-17T00:17:43;0.10;;;0.10;;
13012;SDS011;22580;57.670;12.006;2023-08-17T00:20:10;0.10;;;0.10;;
13012;SDS011;22580;57.670;12.006;2023-08-17T00:22:38;0.10;;;0.10;;
13012;SDS011;22580;57.670;12.006;2023-08-17T00:25:06;0.17;;;0.10;;
13012;SDS011;22580;57.670;12.006;2023-08-17T00:27:33;0.10;;;0.10;;
13012;SDS011;22580;57.670;12.006;2023-08-17T00:30:02;0.10;;;0.10;;
13012;SDS011;22580;57.670;12.006;2023-08-17T00:32:29;0.20;;;0.20;;
13012;SDS011;22580;57.670;12.006;2023-08-17T00:34:56;0.63;;;0.20;;
13012;SDS011;22580;57.670;12.006;2023-08-17T00:37:23;0.20;;;0.20;;
13012;SDS011;22580;57.670;12.006;2023-08-17T00:39:50;0.20;;;0.20;;
13012;SDS011;22580;57.670;12.006;2023-08-17T00:42:17;0.35;;;0.20;;
13012;SDS011;22580;57.670;12.006;2023-08-17T00:44:44;0.30;;;0.30;;
13012;SDS011;22580;57.670;12.006;2023-08-17T00:47:12;0.15;;;0.15;;
13012;SDS011;22580;57.670;12.006;2023-08-17T00:49:40;0.10;;;0.10;;
13012;SDS011;22580;57.670;12.006;2023-08-17T00:52:07;0.20;;;0.20;;
13012;SDS011;22580;57.670;12.006;2023-08-17T00:54:35;0.43;;;0.13;;
13012;SDS011;22580;57.670;12.006;2023-08-17T00:57:02;0.85;;;0.20;;
13012;SDS011;22580;57.670;12.006;2023-08-17T00:59:31;0.10;;;0.10;;
13012;SDS011;22580;57.670;12.006;2023-08-17T01:01:58;0.10;;;0.10;;
13012;SDS011;22580;57.670;12.006;2023-08-17T01:04:27;0.10;;;0.10;;
13012;SDS011;22580;57.670;12.006;2023-08-17T01:06:54;0.10;;;0.10;;
13012;SDS011;22580;57.670;12.006;2023-08-17T01:09:20;0.22;;;0.20;;
13012;SDS011;22580;57.670;12.006;2023-08-17T01:11:48;0.35;;;0.30;;
13012;SDS011;22580;57.670;12.006;2023-08-17T01:14:30;0.25;;;0.25;;
13012;SDS011;22580;57.670;12.006;2023-08-17T01:17:04;0.32;;;0.32;;
13012;SDS011;22580;57.670;12.006;2023-08-17T01:19:38;0.20;;;0.20;;
13012;SDS011;22580;57.670;12.006;2023-08-17T01:22:08;0.20;;;0.20;;
13012;SDS011;22580;57.670;12.006;2023-08-17T01:24:38;0.50;;;0.20;;
13012;SDS011;22580;57.670;12.006;2023-08-17T01:27:05;0.20;;;0.20;;
13012;SDS011;22580;57.670;12.006;2023-08-17T01:29:32;0.15;;;0.15;;
13012;SDS011;22580;57.670;12.006;2023-08-17T01:32:01;0.20;;;0.20;;
13012;SDS011;22580;57.670;12.006;2023-08-17T01:34:35;0.20;;;0.20;;
13012;SDS011;22580;57.670;12.006;2023-08-17T01:37:06;0.30;;;0.20;;
13012;SDS011;22580;57.670;12.006;2023-08-17T01:39:37;0.20;;;0.20;;
13012;SDS011;22580;57.670;12.006;2023-08-17T01:42:09;0.25;;;0.20;;
13012;SDS011;22580;57.670;12.006;2023-08-17T01:44:38;0.17;;;0.17;;
13012;SDS011;22580;57.670;12.006;2023-08-17T01:47:05;0.20;;;0.20;;
13012;SDS011;22580;57.670;12.006;2023-08-17T01:49:32;0.20;;;0.20;;
13012;SDS011;22580;57.670;12.006;2023-08-17T01:51:59;0.13;;;0.13;;
13012;SDS011;22580;57.670;12.006;2023-08-17T01:54:27;0.20;;;0.20;;
13012;SDS011;22580;57.670;12.006;2023-08-17T01:56:56;0.30;;;0.30;;
13012;SDS011;22580;57.670;12.006;2023-08-17T01:59:23;0.22;;;0.22;;
13012;SDS011;22580;57.670;12.006;2023-08-17T02:01:49;0.22;;;0.22;;
13012;SDS011;22580;57.670;12.006;2023-08-17T02:04:16;0.20;;;0.20;;
13012;SDS011;22580;57.670;12.006;2023-08-17T02:06:43;0.10;;;0.10;;
13012;SDS011;22580;57.670;12.006;2023-08-17T02:09:10;0.10;;;0.10;;
13012;SDS011;22580;57.670;12.006;2023-08-17T02:11:37;0.10;;;0.10;;
13012;SDS011;22580;57.670;12.006;2023-08-17T02:14:05;0.10;;;0.10;;
13012;SDS011;22580;57.670;12.006;2023-08-17T02:16:32;0.10;;;0.10;;
13012;SDS011;22580;57.670;12.006;2023-08-17T02:18:59;0.10;;;0.10;;
13012;SDS011;22580;57.670;12.006;2023-08-17T02:21:26;0.10;;;0.10;;
13012;SDS011;22580;57.670;12.006;2023-08-17T02:23:53;0.13;;;0.13;;
13012;SDS011;22580;57.670;12.006;2023-08-17T02:26:20;0.20;;;0.20;;
13012;SDS011;22580;57.670;12.006;2023-08-17T02:28:47;0.10;;;0.10;;
13012;SDS011;22580;57.670;12.006;2023-08-17T02:31:15;0.20;;;0.20;;
13012;SDS011;22580;57.670;12.006;2023-08-17T02:33:42;0.17;;;0.17;;
13012;SDS011;22580;57.670;12.006;2023-08-17T02:36:09;0.08;;;0.08;;
13012;SDS011;22580;57.670;12.006;2023-08-17T02:38:36;0.20;;;0.20;;
13012;SDS011;22580;57.670;12.006;2023-08-17T02:41:03;0.20;;;0.10;;
13012;SDS011;22580;57.670;12.006;2023-08-17T02:43:30;0.15;;;0.15;;
13012;SDS011;22580;57.670;12.006;2023-08-17T02:45:57;0.15;;;0.15;;
13012;SDS011;22580;57.670;12.006;2023-08-17T02:48:26;0.10;;;0.10;;
13012;SDS011;22580;57.670;12.006;2023-08-17T02:50:52;0.20;;;0.20;;
13012;SDS011;22580;57.670;12.006;2023-08-17T02:53:19;0.45;;;0.20;;
13012;SDS011;22580;57.670;12.006;2023-08-17T02:55:46;0.20;;;0.20;;
13012;SDS011;22580;57.670;12.006;2023-08-17T02:58:13;0.10;;;0.10;;
13012;SDS011;22580;57.670;12.006;2023-08-17T03:00:40;0.10;;;0.10;;
13012;SDS011;22580;57.670;12.006;2023-08-17T03:03:07;0.10;;;0.10;;
13012;SDS011;22580;57.670;12.006;2023-08-17T03:05:35;0.17;;;0.17;;
13012;SDS011;22580;57.670;12.006;2023-08-17T03:08:03;0.63;;;0.20;;
13012;SDS011;22580;57.670;12.006;2023-08-17T03:10:30;0.20;;;0.20;;
13012;SDS011;22580;57.670;12.006;2023-08-17T03:12:57;0.20;;;0.20;;
13012;SDS011;22580;57.670;12.006;2023-08-17T03:15:24;0.10;;;0.10;;
13012;SDS011;22580;57.670;12.006;2023-08-17T03:17:51;0.10;;;0.10;;
13012;SDS011;22580;57.670;12.006;2023-08-17T03:20:18;0.17;;;0.17;;
13012;SDS011;22580;57.670;12.006;2023-08-17T03:22:46;0.10;;;0.10;;
13012;SDS011;22580;57.670;12.006;2023-08-17T03:25:13;0.10;;;0.10;;
13012;SDS011;22580;57.670;12.006;2023-08-17T03:27:40;0.15;;;0.15;;
13012;SDS011;22580;57.670;12.006;2023-08-17T03:30:07;0.20;;;0.20;;
13012;SDS011;22580;57.670;12.006;2023-08-17T03:32:34;0.10;;;0.10;;
13012;SDS011;22580;57.670;12.006;2023-08-17T03:35:01;0.20;;;0.20;;
13012;SDS011;22580;57.670;12.006;2023-08-17T03:37:28;0.20;;;0.20;;
13012;SDS011;22580;57.670;12.006;2023-08-17T03:39:57;0.13;;;0.13;;
13012;SDS011;22580;57.670;12.006;2023-08-17T03:42:25;0.15;;;0.10;;
13012;SDS011;22580;57.670;12.006;2023-08-17T03:44:52;0.10;;;0.10;;
13012;SDS011;22580;57.670;12.006;2023-08-17T03:47:19;0.10;;;0.10;;
13012;SDS011;22580;57.670;12.006;2023-08-17T03:49:46;0.10;;;0.10;;
13012;SDS011;22580;57.670;12.006;2023-08-17T03:52:13;0.15;;;0.15;;
13012;SDS011;22580;57.670;12.006;2023-08-17T03:54:40;0.10;;;0.10;;
13012;SDS011;22580;57.670;12.006;2023-08-17T03:57:09;0.20;;;0.20;;
13012;SDS011;22580;57.670;12.006;2023-08-17T03:59:36;0.15;;;0.15;;
13012;SDS011;22580;57.670;12.006;2023-08-17T04:02:03;0.17;;;0.17;;
13012;SDS011;22580;57.670;12.006;2023-08-17T04:04:29;0.20;;;0.20;;
13012;SDS011;22580;57.670;12.006;2023-08-17T04:06:57;0.13;;;0.13;;
13012;SDS011;22580;57.670;12.006;2023-08-17T04:09:24;0.10;;;0.10;;
13012;SDS011;22580;57.670;12.006;2023-08-17T04:11:51;0.10;;;0.10;;
13012;SDS011;22580;57.670;12.006;2023-08-17T04:14:21;0.00;;;0.00;;
13012;SDS011;22580;57.670;12.006;2023-08-17T04:16:48;0.00;;;0.00;;
13012;SDS011;22580;57.670;12.006;2023-08-17T04:19:15;0.10;;;0.10;;
13012;SDS011;22580;57.670;12.006;2023-08-17T04:21:42;0.00;;;0.00;;
13012;SDS011;22580;57.670;12.006;2023-08-17T04:24:08;0.10;;;0.10;;
13012;SDS011;22580;57.670;12.006;2023-08-17T04:26:35;0.10;;;0.10;;
13012;SDS011;22580;57.670;12.006;2023-08-17T04:29:03;0.13;;;0.13;;
13012;SDS011;22580;57.670;12.006;2023-08-17T04:31:32;0.00;;;0.00;;
13012;SDS011;22580;57.670;12.006;2023-08-17T04:33:59;0.10;;;0.10;;
13012;SDS011;22580;57.670;12.006;2023-08-17T04:36:26;0.10;;;0.10;;
13012;SDS011;22580;57.670;12.006;2023-08-17T04:38:53;0.00;;;0.00;;
13012;SDS011;22580;57.670;12.006;2023-08-17T04:41:20;0.00;;;0.00;;
13012;SDS011;22580;57.670;12.006;2023-08-17T04:43:47;0.10;;;0.10;;
13012;SDS011;22580;57.670;12.006;2023-08-17T04:46:14;0.13;;;0.13;;
13012;SDS011;22580;57.670;12.006;2023-08-17T04:48:43;0.20;;;0.20;;
13012;SDS011;22580;57.670;12.006;2023-08-17T04:51:10;0.10;;;0.10;;
13012;SDS011;22580;57.670;12.006;2023-08-17T04:53:36;0.10;;;0.10;;
13012;SDS011;22580;57.670;12.006;2023-08-17T04:56:04;0.10;;;0.10;;
13012;SDS011;22580;57.670;12.006;2023-08-17T04:58:31;0.10;;;0.10;;
13012;SDS011;22580;57.670;12.006;2023-08-17T05:00:58;0.20;;;0.20;;
13012;SDS011;22580;57.670;12.006;2023-08-17T05:03:26;0.10;;;0.10;;
13012;SDS011;22580;57.670;12.006;2023-08-17T05:05:54;0.10;;;0.10;;
13012;SDS011;22580;57.670;12.006;2023-08-17T05:08:21;0.20;;;0.20;;
13012;SDS011;22580;57.670;12.006;2023-08-17T05:10:48;0.17;;;0.17;;
13012;SDS011;22580;57.670;12.006;2023-08-17T05:13:15;0.20;;;0.20;;
13012;SDS011;22580;57.670;12.006;2023-08-17T05:15:42;0.10;;;0.10;;
13012;SDS011;22580;57.670;12.006;2023-08-17T05:18:09;0.20;;;0.20;;
13012;SDS011;22580;57.670;12.006;2023-08-17T05:20:37;0.20;;;0.20;;
13012;SDS011;22580;57.670;12.006;2023-08-17T05:23:05;0.45;;;0.45;;
13012;SDS011;22580;57.670;12.006;2023-08-17T05:25:33;0.50;;;0.50;;
13012;SDS011;22580;57.670;12.006;2023-08-17T05:28:00;0.20;;;0.20;;
13012;SDS011;22580;57.670;12.006;2023-08-17T05:30:26;0.30;;;0.30;;
13012;SDS011;22580;57.670;12.006;2023-08-17T05:32:53;0.40;;;0.40;;
13012;SDS011;22580;57.670;12.006;2023-08-17T05:35:20;0.30;;;0.30;;
13012;SDS011;22580;57.670;12.006;2023-08-17T05:37:47;0.22;;;0.22;;
13012;SDS011;22580;57.670;12.006;2023-08-17T05:40:16;0.30;;;0.30;;
13012;SDS011;22580;57.670;12.006;2023-08-17T05:42:43;0.28;;;0.28;;
13012;SDS011;22580;57.670;12.006;2023-08-17T05:45:10;0.10;;;0.10;;
13012;SDS011;22580;57.670;12.006;2023-08-17T05:47:37;0.30;;;0.30;;
13012;SDS011;22580;57.670;12.006;2023-08-17T05:50:05;0.40;;;0.40;;
13012;SDS011;22580;57.670;12.006;2023-08-17T05:52:33;0.30;;;0.30;;
13012;SDS011;22580;57.670;12.006;2023-08-17T05:55:00;0.30;;;0.30;;
13012;SDS011;22580;57.670;12.006;2023-08-17T05:57:28;0.10;;;0.10;;
13012;SDS011;22580;57.670;12.006;2023-08-17T05:59:55;0.08;;;0.08;;
13012;SDS011;22580;57.670;12.006;2023-08-17T06:02:22;0.20;;;0.20;;
13012;SDS011;22580;57.670;12.006;2023-08-17T06:04:49;0.10;;;0.10;;
13012;SDS011;22580;57.670;12.006;2023-08-17T06:07:16;0.20;;;0.20;;
13012;SDS011;22580;57.670;12.006;2023-08-17T06:09:43;0.10;;;0.10;;
13012;SDS011;22580;57.670;12.006;2023-08-17T06:12:10;0.10;;;0.10;;
13012;SDS011;22580;57.670;12.006;2023-08-17T06:14:38;0.10;;;0.10;;
13012;SDS011;22580;57.670;12.006;2023-08-17T06:17:05;0.10;;;0.10;;
13012;SDS011;22580;57.670;12.006;2023-08-17T06:19:34;0.10;;;0.00;;
13012;SDS011;22580;57.670;12.006;2023-08-17T06:22:01;0.10;;;0.10;;
13012;SDS011;22580;57.670;12.006;2023-08-17T06:24:28;0.05;;;0.05;;
13012;SDS011;22580;57.670;12.006;2023-08-17T06:27:08;0.10;;;0.10;;
13012;SDS011;22580;57.670;12.006;2023-08-17T06:30:01;0.10;;;0.10;;
13012;SDS011;22580;57.670;12.006;2023-08-17T06:32:29;0.10;;;0.10;;
13012;SDS011;22580;57.670;12.006;2023-08-17T06:34:56;0.55;;;0.20;;
13012;SDS011;22580;57.670;12.006;2023-08-17T06:37:23;0.15;;;0.15;;
13012;SDS011;22580;57.670;12.006;2023-08-17T06:39:50;0.13;;;0.13;;
13012;SDS011;22580;57.670;12.006;2023-08-17T06:42:17;0.15;;;0.15;;
13012;SDS011;22580;57.670;12.006;2023-08-17T06:44:44;0.25;;;0.25;;
13012;SDS011;22580;57.670;12.006;2023-08-17T06:47:12;0.20;;;0.20;;
13012;SDS011;22580;57.670;12.006;2023-08-17T06:49:39;0.17;;;0.17;;
13012;SDS011;22580;57.670;12.006;2023-08-17T06:52:06;0.20;;;0.20;;
13012;SDS011;22580;57.670;12.006;2023-08-17T06:54:33;0.25;;;0.25;;
13012;SDS011;22580;57.670;12.006;2023-08-17T06:57:00;0.20;;;0.20;;
13012;SDS011;22580;57.670;12.006;2023-08-17T06:59:27;0.40;;;0.40;;
13012;SDS011;22580;57.670;12.006;2023-08-17T07:01:54;0.20;;;0.20;;
13012;SDS011;22580;57.670;12.006;2023-08-17T07:04:23;0.15;;;0.15;;
13012;SDS011;22580;57.670;12.006;2023-08-17T07:06:49;0.93;;;0.40;;
13012;SDS011;22580;57.670;12.006;2023-08-17T07:09:17;0.22;;;0.22;;
13012;SDS011;22580;57.670;12.006;2023-08-17T07:11:45;0.50;;;0.50;;
13012;SDS011;22580;57.670;12.006;2023-08-17T07:14:13;0.28;;;0.28;;
13012;SDS011;22580;57.670;12.006;2023-08-17T07:16:41;0.50;;;0.50;;
13012;SDS011;22580;57.670;12.006;2023-08-17T07:19:08;0.40;;;0.40;;
13012;SDS011;22580;57.670;12.006;2023-08-17T07:21:39;0.38;;;0.38;;
13012;SDS011;22580;57.670;12.006;2023-08-17T07:24:13;0.40;;;0.40;;
13012;SDS011;22580;57.670;12.006;2023-08-17T07:26:41;0.40;;;0.40;;
13012;SDS011;22580;57.670;12.006;2023-08-17T07:29:08;0.40;;;0.40;;
13012;SDS011;22580;57.670;12.006;2023-08-17T07:31:36;0.30;;;0.30;;
13012;SDS011;22580;57.670;12.006;2023-08-17T07:34:03;0.30;;;0.30;;
13012;SDS011;22580;57.670;12.006;2023-08-17T07:36:30;0.40;;;0.40;;
13012;SDS011;22580;57.670;12.006;2023-08-17T07:38:59;0.40;;;0.40;;
13012;SDS011;22580;57.670;12.006;2023-08-17T07:41:26;0.28;;;0.28;;
13012;SDS011;22580;57.670;12.006;2023-08-17T07:43:53;0.40;;;0.40;;
13012;SDS011;22580;57.670;12.006;2023-08-17T07:46:20;0.50;;;0.50;;
13012;SDS011;22580;57.670;12.006;2023-08-17T07:48:47;0.35;;;0.35;;
13012;SDS011;22580;57.670;12.006;2023-08-17T07:51:17;0.30;;;0.30;;
13012;SDS011;22580;57.670;12.006;2023-08-17T07:53:44;0.30;;;0.25;;
13012;SDS011;22580;57.670;12.006;2023-08-17T07:56:13;0.20;;;0.20;;
13012;SDS011;22580;57.670;12.006;2023-08-17T07:58:40;0.63;;;0.50;;
13012;SDS011;22580;57.670;12.006;2023-08-17T08:01:06;0.30;;;0.30;;
13012;SDS011;22580;57.670;12.006;2023-08-17T08:03:33;0.40;;;0.40;;
13012;SDS011;22580;57.670;12.006;2023-08-17T08:06:00;0.50;;;0.50;;
13012;SDS011;22580;57.670;12.006;2023-08-17T08:08:31;0.30;;;0.30;;
13012;SDS011;22580;57.670;12.006;2023-08-17T08:10:58;0.40;;;0.40;;
13012;SDS011;22580;57.670;12.006;2023-08-17T08:13:26;0.35;;;0.35;;
13012;SDS011;22580;57.670;12.006;2023-08-17T08:15:53;0.40;;;0.40;;
13012;SDS011;22580;57.670;12.006;2023-08-17T08:18:20;0.40;;;0.40;;
13012;SDS011;22580;57.670;12.006;2023-08-17T08:20:48;0.30;;;0.30;;
13012;SDS011;22580;57.670;12.006;2023-08-17T08:23:14;0.47;;;0.30;;
13012;SDS011;22580;57.670;12.006;2023-08-17T08:25:41;0.22;;;0.22;;
13012;SDS011;22580;57.670;12.006;2023-08-17T08:28:08;0.30;;;0.30;;
13012;SDS011;22580;57.670;12.006;2023-08-17T08:30:37;0.22;;;0.22;;
13012;SDS011;22580;57.670;12.006;2023-08-17T08:33:04;0.40;;;0.40;;
13012;SDS011;22580;57.670;12.006;2023-08-17T08:35:31;0.50;;;0.50;;
13012;SDS011;22580;57.670;12.006;2023-08-17T08:37:58;0.95;;;0.73;;
13012;SDS011;22580;57.670;12.006;2023-08-17T08:40:27;1.30;;;0.70;;
13012;SDS011;22580;57.670;12.006;2023-08-17T08:42:56;0.65;;;0.60;;
13012;SDS011;22580;57.670;12.006;2023-08-17T08:45:24;0.50;;;0.50;;
13012;SDS011;22580;57.670;12.006;2023-08-17T08:47:57;0.52;;;0.52;;
13012;SDS011;22580;57.670;12.006;2023-08-17T08:50:28;0.63;;;0.63;;
13012;SDS011;22580;57.670;12.006;2023-08-17T08:52:58;0.60;;;0.60;;
13012;SDS011;22580;57.670;12.006;2023-08-17T08:55:27;0.70;;;0.70;;
13012;SDS011;22580;57.670;12.006;2023-08-17T08:57:56;0.70;;;0.70;;
13012;SDS011;22580;57.670;12.006;2023-08-17T09:00:24;0.70;;;0.70;;
13012;SDS011;22580;57.670;12.006;2023-08-17T09:02:53;0.75;;;0.75;;
13012;SDS011;22580;57.670;12.006;2023-08-17T09:05:22;0.80;;;0.80;;
13012;SDS011;22580;57.670;12.006;2023-08-17T09:07:50;0.70;;;0.70;;
13012;SDS011;22580;57.670;12.006;2023-08-17T09:10:18;0.65;;;0.65;;
13012;SDS011;22580;57.670;12.006;2023-08-17T09:12:46;1.13;;;0.50;;
13012;SDS011;22580;57.670;12.006;2023-08-17T09:15:13;0.55;;;0.55;;
13012;SDS011;22580;57.670;12.006;2023-08-17T09:17:40;0.50;;;0.50;;
13012;SDS011;22580;57.670;12.006;2023-08-17T09:20:08;0.50;;;0.50;;
13012;SDS011;22580;57.670;12.006;2023-08-17T09:22:42;0.50;;;0.50;;
13012;SDS011;22580;57.670;12.006;2023-08-17T09:25:10;0.43;;;0.43;;
13012;SDS011;22580;57.670;12.006;2023-08-17T09:27:37;0.50;;;0.50;;
13012;SDS011;22580;57.670;12.006;2023-08-17T09:30:06;0.60;;;0.60;;
13012;SDS011;22580;57.670;12.006;2023-08-17T09:32:35;0.70;;;0.70;;
13012;SDS011;22580;57.670;12.006;2023-08-17T09:35:02;1.10;;;1.00;;
13012;SDS011;22580;57.670;12.006;2023-08-17T09:37:30;0.70;;;0.70;;
13012;SDS011;22580;57.670;12.006;2023-08-17T09:39:58;0.52;;;0.52;;
13012;SDS011;22580;57.670;12.006;2023-08-17T09:42:25;0.55;;;0.55;;
13012;SDS011;22580;57.670;12.006;2023-08-17T09:44:53;0.40;;;0.40;;
13012;SDS011;22580;57.670;12.006;2023-08-17T09:47:21;0.50;;;0.50;;
13012;SDS011;22580;57.670;12.006;2023-08-17T09:49:48;0.63;;;0.55;;
13012;SDS011;22580;57.670;12.006;2023-08-17T09:52:15;0.50;;;0.50;;
13012;SDS011;22580;57.670;12.006;2023-08-17T09:54:42;0.60;;;0.60;;
13012;SDS011;22580;57.670;12.006;2023-08-17T09:57:13;0.50;;;0.50;;
13012;SDS011;22580;57.670;12.006;2023-08-17T09:59:40;0.95;;;0.80;;
13012;SDS011;22580;57.670;12.006;2023-08-17T10:02:14;0.77;;;0.63;;
13012;SDS011;22580;57.670;12.006;2023-08-17T10:04:46;0.55;;;0.55;;
13012;SDS011;22580;57.670;12.006;2023-08-17T10:07:16;0.40;;;0.40;;
13012;SDS011;22580;57.670;12.006;2023-08-17T10:09:47;0.43;;;0.32;;
13012;SDS011;22580;57.670;12.006;2023-08-17T10:12:25;0.47;;;0.47;;
13012;SDS011;22580;57.670;12.006;2023-08-17T10:14:55;0.40;;;0.40;;
13012;SDS011;22580;57.670;12.006;2023-08-17T10:17:30;0.30;;;0.30;;
13012;SDS011;22580;57.670;12.006;2023-08-17T10:20:01;0.45;;;0.45;;
13012;SDS011;22580;57.670;12.006;2023-08-17T10:22:31;0.40;;;0.40;;
13012;SDS011;22580;57.670;12.006;2023-08-17T10:25:03;0.30;;;0.30;;
13012;SDS011;22580;57.670;12.006;2023-08-17T10:27:38;0.47;;;0.47;;
13012;SDS011;22580;57.670;12.006;2023-08-17T10:30:06;0.40;;;0.40;;
13012;SDS011;22580;57.670;12.006;2023-08-17T10:32:34;0.40;;;0.40;;
13012;SDS011;22580;57.670;12.006;2023-08-17T10:35:01;0.43;;;0.40;;
13012;SDS011;22580;57.670;12.006;2023-08-17T10:37:30;0.30;;;0.30;;
13012;SDS011;22580;57.670;12.006;2023-08-17T10:39:57;0.40;;;0.40;;
13012;SDS011;22580;57.670;12.006;2023-08-17T10:42:30;0.45;;;0.45;;
13012;SDS011;22580;57.670;12.006;2023-08-17T10:44:59;0.40;;;0.40;;
13012;SDS011;22580;57.670;12.006;2023-08-17T10:47:29;0.40;;;0.40;;
13012;SDS011;22580;57.670;12.006;2023-08-17T10:49:57;0.50;;;0.50;;
13012;SDS011;22580;57.670;12.006;2023-08-17T10:52:29;1.40;;;0.70;;
13012;SDS011;22580;57.670;12.006;2023-08-17T10:54:59;0.40;;;0.40;;
13012;SDS011;22580;57.670;12.006;2023-08-17T10:57:32;0.75;;;0.47;;
13012;SDS011;22580;57.670;12.006;2023-08-17T11:00:15;0.57;;;0.57;;
13012;SDS011;22580;57.670;12.006;2023-08-17T11:02:45;0.50;;;0.50;;
13012;SDS011;22580;57.670;12.006;2023-08-17T11:05:36;0.60;;;0.60;;
13012;SDS011;22580;57.670;12.006;2023-08-17T11:08:04;0.40;;;0.40;;
13012;SDS011;22580;57.670;12.006;2023-08-17T11:10:32;0.85;;;0.70;;
13012;SDS011;22580;57.670;12.006;2023-08-17T11:12:59;0.65;;;0.55;;
13012;SDS011;22580;57.670;12.006;2023-08-17T11:15:35;0.40;;;0.40;;
13012;SDS011;22580;57.670;12.006;2023-08-17T11:18:04;0.50;;;0.50;;
13012;SDS011;22580;57.670;12.006;2023-08-17T11:20:32;0.47;;;0.47;;
13012;SDS011;22580;57.670;12.006;2023-08-17T11:22:59;0.40;;;0.40;;
13012;SDS011;22580;57.670;12.006;2023-08-17T11:25:26;0.40;;;0.40;;
13012;SDS011;22580;57.670;12.006;2023-08-17T11:27:54;0.30;;;0.30;;
13012;SDS011;22580;57.670;12.006;2023-08-17T11:30:21;0.40;;;0.40;;
13012;SDS011;22580;57.670;12.006;2023-08-17T11:32:50;0.47;;;0.47;;
13012;SDS011;22580;57.670;12.006;2023-08-17T11:35:17;0.30;;;0.30;;
13012;SDS011;22580;57.670;12.006;2023-08-17T11:37:45;0.70;;;0.47;;
13012;SDS011;22580;57.670;12.006;2023-08-17T11:40:12;0.40;;;0.40;;
13012;SDS011;22580;57.670;12.006;2023-08-17T11:42:39;0.40;;;0.40;;
13012;SDS011;22580;57.670;12.006;2023-08-17T11:45:06;0.30;;;0.30;;
13012;SDS011;22580;57.670;12.006;2023-08-17T11:47:35;0.38;;;0.38;;
13012;SDS011;22580;57.670;12.006;2023-08-17T11:50:04;0.45;;;0.40;;
13012;SDS011;22580;57.670;12.006;2023-08-17T11:52:32;0.40;;;0.40;;
13012;SDS011;22580;57.670;12.006;2023-08-17T11:55:01;0.40;;;0.40;;
13012;SDS011;22580;57.670;12.006;2023-08-17T11:57:29;0.40;;;0.40;;
13012;SDS011;22580;57.670;12.006;2023-08-17T11:59:56;0.30;;;0.30;;
13012;SDS011;22580;57.670;12.006;2023-08-17T12:02:24;0.50;;;0.45;;
13012;SDS011;22580;57.670;12.006;2023-08-17T12:04:51;0.60;;;0.60;;
13012;SDS011;22580;57.670;12.006;2023-08-17T12:07:21;0.70;;;0.70;;
13012;SDS011;22580;57.670;12.006;2023-08-17T12:09:49;0.55;;;0.55;;
13012;SDS011;22580;57.670;12.006;2023-08-17T12:12:17;0.55;;;0.55;;
13012;SDS011;22580;57.670;12.006;2023-08-17T12:14:46;0.40;;;0.40;;
13012;SDS011;22580;57.670;12.006;2023-08-17T12:17:16;0.50;;;0.50;;
13012;SDS011;22580;57.670;12.006;2023-08-17T12:19:44;0.57;;;0.57;;
13012;SDS011;22580;57.670;12.006;2023-08-17T12:22:15;0.68;;;0.68;;
13012;SDS011;22580;57.670;12.006;2023-08-17T12:24:44;0.40;;;0.40;;
13012;SDS011;22580;57.670;12.006;2023-08-17T12:27:11;0.50;;;0.50;;
13012;SDS011;22580;57.670;12.006;2023-08-17T12:29:45;0.65;;;0.65;;
13012;SDS011;22580;57.670;12.006;2023-08-17T12:32:13;0.40;;;0.40;;
13012;SDS011;22580;57.670;12.006;2023-08-17T12:34:40;0.43;;;0.43;;
13012;SDS011;22580;57.670;12.006;2023-08-17T12:37:08;0.50;;;0.50;;
13012;SDS011;22580;57.670;12.006;2023-08-17T12:39:35;0.30;;;0.30;;
13012;SDS011;22580;57.670;12.006;2023-08-17T12:42:04;0.50;;;0.50;;
13012;SDS011;22580;57.670;12.006;2023-08-17T12:44:31;0.40;;;0.40;;
13012;SDS011;22580;57.670;12.006;2023-08-17T12:46:58;0.40;;;0.40;;
13012;SDS011;22580;57.670;12.006;2023-08-17T12:49:25;0.35;;;0.32;;
13012;SDS011;22580;57.670;12.006;2023-08-17T12:51:52;0.40;;;0.40;;
13012;SDS011;22580;57.670;12.006;2023-08-17T12:54:19;0.30;;;0.30;;
13012;SDS011;22580;57.670;12.006;2023-08-17T12:56:45;0.40;;;0.40;;
13012;SDS011;22580;57.670;12.006;2023-08-17T12:59:14;0.52;;;0.52;;
13012;SDS011;22580;57.670;12.006;2023-08-17T13:01:40;0.50;;;0.50;;
13012;SDS011;22580;57.670;12.006;2023-08-17T13:04:08;1.60;;;1.50;;
13012;SDS011;22580;57.670;12.006;2023-08-17T13:06:34;1.10;;;1.10;;
13012;SDS011;22580;57.670;12.006;2023-08-17T13:09:01;1.73;;;1.38;;
13012;SDS011;22580;57.670;12.006;2023-08-17T13:11:28;1.40;;;1.30;;
13012;SDS011;22580;57.670;12.006;2023-08-17T13:13:55;1.30;;;0.90;;
13012;SDS011;22580;57.670;12.006;2023-08-17T13:16:23;1.15;;;1.10;;
13012;SDS011;22580;57.670;12.006;2023-08-17T13:18:50;0.90;;;0.90;;
13012;SDS011;22580;57.670;12.006;2023-08-17T13:21:17;0.63;;;0.63;;
13012;SDS011;22580;57.670;12.006;2023-08-17T13:23:46;0.50;;;0.50;;
13012;SDS011;22580;57.670;12.006;2023-08-17T13:26:12;0.50;;;0.50;;
13012;SDS011;22580;57.670;12.006;2023-08-17T13:28:39;0.73;;;0.73;;
13012;SDS011;22580;57.670;12.006;2023-08-17T13:31:06;0.70;;;0.70;;
13012;SDS011;22580;57.670;12.006;2023-08-17T13:33:34;0.60;;;0.60;;
13012;SDS011;22580;57.670;12.006;2023-08-17T13:36:01;0.55;;;0.55;;
13012;SDS011;22580;57.670;12.006;2023-08-17T13:38:28;0.68;;;0.68;;
13012;SDS011;22580;57.670;12.006;2023-08-17T13:40:55;0.68;;;0.68;;
13012;SDS011;22580;57.670;12.006;2023-08-17T13:43:21;0.60;;;0.60;;
13012;SDS011;22580;57.670;12.006;2023-08-17T13:45:48;0.40;;;0.40;;
13012;SDS011;22580;57.670;12.006;2023-08-17T13:48:15;0.43;;;0.43;;
13012;SDS011;22580;57.670;12.006;2023-08-17T13:50:43;0.30;;;0.30;;
13012;SDS011;22580;57.670;12.006;2023-08-17T13:53:11;0.30;;;0.30;;
13012;SDS011;22580;57.670;12.006;2023-08-17T13:55:38;0.40;;;0.40;;
13012;SDS011;22580;57.670;12.006;2023-08-17T13:58:05;0.40;;;0.40;;
13012;SDS011;22580;57.670;12.006;2023-08-17T14:00:31;0.32;;;0.32;;
13012;SDS011;22580;57.670;12.006;2023-08-17T14:02:58;0.32;;;0.32;;
13012;SDS011;22580;57.670;12.006;2023-08-17T14:05:25;0.30;;;0.30;;
13012;SDS011;22580;57.670;12.006;2023-08-17T14:07:53;0.40;;;0.40;;
13012;SDS011;22580;57.670;12.006;2023-08-17T14:10:20;0.43;;;0.43;;
13012;SDS011;22580;57.670;12.006;2023-08-17T14:12:47;0.38;;;0.38;;
13012;SDS011;22580;57.670;12.006;2023-08-17T14:15:14;0.30;;;0.30;;
13012;SDS011;22580;57.670;12.006;2023-08-17T14:17:41;0.50;;;0.50;;
13012;SDS011;22580;57.670;12.006;2023-08-17T14:20:08;0.30;;;0.30;;
13012;SDS011;22580;57.670;12.006;2023-08-17T14:22:36;0.50;;;0.50;;
13012;SDS011;22580;57.670;12.006;2023-08-17T14:25:05;0.50;;;0.50;;
13012;SDS011;22580;57.670;12.006;2023-08-17T14:27:32;0.50;;;0.50;;
13012;SDS011;22580;57.670;12.006;2023-08-17T14:29:59;0.40;;;0.40;;
13012;SDS011;22580;57.670;12.006;2023-08-17T14:32:27;0.50;;;0.50;;
13012;SDS011;22580;57.670;12.006;2023-08-17T14:34:54;0.38;;;0.38;;
13012;SDS011;22580;57.670;12.006;2023-08-17T14:37:21;0.55;;;0.47;;